MMCL/CUL METAR and TAF weather

Enter ICAO airport designator
Station Type Date Time Source
MMCL METAR 2020/04/04 03:40 UTC NOAA

MMCL 040340Z 00000KT 10SM SCT120 BKN250 21/13 A2984 RMK 8/032 HZY


Station Type Date Time Source
MMCL Decoded METAR 2020/04/04 03:40 UTC NOAA

Culiacan, Sin., Mexico (MMCL) 24-49N 107-24W
Apr 03, 2020 - 11:40 PM EDT / 2020.04.04 0340 UTC
Wind: Calm:0
Visibility: 10 mile(s):0
Sky conditions: mostly cloudy
Temperature: 69 F (21 C)
Dew Point: 55 F (13 C)
Relative Humidity: 60%
Pressure (altimeter): 29.84 in. Hg (1010 hPa)
ob: MMCL 040340Z 00000KT 10SM SCT120 BKN250 21/13 A2984 RMK 8/032 HZY
cycle: 3

Station Type Date Time Source
MMCL TAF 2020/04/04 06:21 UTC NOAA

TAF MMCL 040413Z 0406/0506 00000KT P6SM SCT250
FM041800 24010KT P6SM SCT120 BKN250
FM050500 00000KT P6SM SCT250

Example: see airport list